Flight Track Log - Related Links

Times and Time Zones

All times are in EDT time to prevent confusion due to time zone crossing. See the SKW6492 flight status page for this flight to view local times or setup timezone preferences in your user account.

Time Position Orientation Groundspeed Altitude Reporting Facility
EDT Latitude Longitude Course Direction KTS MPH feet Rate Location/Type
Fri 09:52:00 PM 39.9667 -104.7000 348° North 262 302 7,300  Level Denver TRACON
Fri 09:52:54 PM 40.0333 -104.6667 21° North 288 331 8,700 1,900 Climbing Denver TRACON
Fri 09:54:00 PM 40.2421 -104.7943 347° North  Level FlightAware Approximate
Fri 09:54:00 PM 40.1000 -104.6167 30° Northeast 294 338 11,100  Level Denver TRACON
Fri 09:55:00 PM 40.3406 -104.8247 346° North  Level FlightAware Approximate
Fri 09:55:00 PM 40.1833 -104.5500 31° Northeast 339 390 12,400  Level Denver TRACON
Fri 09:56:00 PM 40.4387 -104.8573 346° North  Level FlightAware Approximate
Fri 09:56:00 PM 40.2667 -104.4833 31° Northeast 353 406 14,100  Level Denver TRACON
Fri 09:57:00 PM 40.5370 -104.8891 348° North  Level FlightAware Approximate
Fri 09:57:13 PM 40.3739 -104.4033 30° Northeast 371 427 15,200  Level Denver Center
Fri 09:58:15 PM 40.4664 -104.3200 34° Northeast 373 429 17,700 2,468 Climbing Denver Center
Fri 09:59:17 PM 40.5508 -104.2742 22° Northeast 333 383 20,300 1,984 Climbing Denver Center
Fri 10:00:19 PM 40.6344 -104.2522 11° North 310 357 21,800 1,258 Climbing Denver Center
Fri 10:01:21 PM 40.7300 -104.2225 13° North 319 367 22,900 726 Climbing Denver Center
Fri 10:02:23 PM 40.8044 -104.2794 330° Northwest 334 384 23,300 823 Climbing Denver Center
Fri 10:03:25 PM 40.8722 -104.3628 317° Northwest 334 384 24,600 1,113 Climbing Denver Center
Fri 10:04:27 PM 40.9392 -104.4450 317° Northwest 331 381 25,600 1,016 Climbing Denver Center
Fri 10:05:29 PM 41.0114 -104.5311 318° Northwest 334 384 26,700 968 Climbing Denver Center
Fri 10:06:31 PM 41.0867 -104.6242 317° Northwest 332 382 27,600 629 Climbing Denver Center
Fri 10:07:33 PM 41.1539 -104.7058 318° Northwest 340 391 28,000 390 Climbing Denver Center
Fri 10:08:34 PM 41.2367 -104.8097 317° Northwest 360 414 28,400 390 Climbing Denver Center
Fri 10:09:36 PM 41.3092 -104.9008 317° Northwest 371 427 28,800 387 Climbing Denver Center
Fri 10:10:38 PM 41.3831 -104.9908 318° Northwest 376 433 29,200 435 Climbing Denver Center
Fri 10:11:40 PM 41.4714 -105.1022 317° Northwest 387 445 29,700 387 Climbing Denver Center
Fri 10:12:42 PM 41.5481 -105.1981 317° Northwest 391 450 30,000 387 Climbing Denver Center
Fri 10:13:44 PM 41.6364 -105.3092 317° Northwest 392 451 30,500 435 Climbing Denver Center
Fri 10:14:46 PM 41.7139 -105.4083 316° Northwest 399 459 30,900 387 Climbing Denver Center
Fri 10:15:48 PM 41.8033 -105.5228 316° Northwest 397 457 31,300 387 Climbing Denver Center
Fri 10:16:50 PM 41.8814 -105.6192 317° Northwest 397 457 31,700 339 Climbing Denver Center
Fri 10:17:52 PM 41.9572 -105.7164 316° Northwest 395 455 32,000 145 Climbing Denver Center
Fri 10:18:54 PM 42.0500 -105.8350 317° Northwest 405 466 32,000  Level Denver Center
Fri 10:19:56 PM 42.1292 -105.9381 316° Northwest 412 474 32,000  Level Denver Center
Fri 10:20:57 PM 42.2228 -106.0592 316° Northwest 416 479 32,000  Level Denver Center
Fri 10:21:59 PM 42.3047 -106.1644 316° Northwest 421 484 32,000  Level Denver Center
Fri 10:23:01 PM 42.4000 -106.2892 316° Northwest 425 489 32,000  Level Denver Center
Fri 10:24:03 PM 42.4817 -106.3958 316° Northwest 425 489 32,000  Level Denver Center
Fri 10:25:05 PM 42.5772 -106.5206 316° Northwest 426 490 32,000  Level Denver Center
Fri 10:26:07 PM 42.6600 -106.6292 316° Northwest 429 494 32,000  Level Denver Center
Fri 10:27:08 PM 42.7425 -106.7392 316° Northwest 432 497 32,000  Level Denver Center
Fri 10:28:10 PM 42.8389 -106.8656 316° Northwest 432 497 32,000  Level Denver Center
Fri 10:28:56 PM 42.9061 -106.9592 314° West 432 497 32,000  Level Salt Lake Center
Fri 10:29:57 PM 42.9883 -107.0689 316° Northwest 432 497 32,000  Level Salt Lake Center
Fri 10:30:59 PM 43.0711 -107.1800 316° Northwest 434 499 32,000  Level Salt Lake Center
Fri 10:32:00 PM 43.1650 -107.3069 315° West 432 497 32,000  Level Salt Lake Center
Fri 10:33:02 PM 43.2456 -107.4183 315° West 432 497 32,000  Level Salt Lake Center
Fri 10:34:03 PM 43.3403 -107.5464 316° Northwest 429 494 32,000  Level Salt Lake Center
Fri 10:35:05 PM 43.4214 -107.6581 315° West 431 496 32,000 -244 Level Salt Lake Center
Fri 10:36:06 PM 43.5158 -107.7886 315° West 433 498 31,500 -585 Descending Salt Lake Center
Fri 10:37:08 PM 43.5989 -107.9033 315° West 439 505 30,800 -683 Descending Salt Lake Center
Fri 10:38:09 PM 43.6897 -108.0081 320° Northwest 444 511 30,100 -927 Descending Salt Lake Center
Fri 10:39:11 PM 43.7947 -108.1269 321° Northwest 440 506 28,900 -1,854 Descending Salt Lake Center
Fri 10:40:12 PM 43.8797 -108.2275 320° Northwest 426 490 26,300 -3,073 Descending Salt Lake Center
Fri 10:41:14 PM 43.9736 -108.3500 317° Northwest 419 482 22,600 -3,415 Descending Salt Lake Center
Fri 10:42:15 PM 44.0494 -108.4564 315° West 413 475 19,300 -2,585 Descending Salt Lake Center
Fri 10:43:17 PM 44.1414 -108.5853 315° West 411 473 17,300 -1,935 Descending Salt Lake Center
Fri 10:45:00 PM 44.3078 -108.7563 314° West  Level FlightAware Approximate
Fri 10:52:00 PM 44.5167 -109.0167 313° West  Level FlightAware Approximate

Login

Don't have an account? Register now (free) for customized features, flight alerts, and more!